Terminal Aerodrome Forecast
Issued by NWS Charleston, WV

Current Version | Previous Version | Graphics & Text | Print | Product List | Glossary On
Versions: 1 2 3 4 5 6 7 8 9 10 11 12 13 14 15 16 17 18 19 20 21 22 23 24
000
FTUS41 KRLX 271700
TAFEKN
TAF
KEKN 271720Z 2718/2818 34004KT P6SM SCT040
     FM272000 32005KT P6SM VCTS SCT040CB
     FM280300 VRB03KT P6SM BKN030
     FM280700 VRB03KT 6SM BR BKN015
     FM281000 00000KT 4SM BR BKN015
     FM281300 00000KT P6SM BKN020
     FM281500 32004KT P6SM SCT045
     FM281700 32005KT P6SM FEW050=

USA.gov is the U.S. government's official web portal to all federal, state and local government web resources and services.